createdAt,value
2023-04-08T00:02:11.802Z,100017.88
2023-04-08T00:04:38.505Z,100023.00
2023-04-08T00:07:06.013Z,100025.56
2023-04-08T00:09:32.608Z,100028.94
2023-04-08T00:11:59.365Z,100034.91
2023-04-08T00:14:25.924Z,100033.97
2023-04-08T00:16:52.516Z,100041.56
2023-04-08T00:19:19.159Z,100038.09
2023-04-08T00:21:45.759Z,100040.72
2023-04-08T00:24:12.319Z,100042.38
2023-04-08T00:26:39.150Z,100036.38
2023-04-08T00:29:05.723Z,100044.84
2023-04-08T00:31:32.258Z,100049.91
2023-04-08T00:33:58.926Z,100048.06
2023-04-08T00:36:27.709Z,100061.66
2023-04-08T00:38:54.262Z,100063.28
2023-04-08T00:41:20.914Z,100067.47
2023-04-08T00:43:47.451Z,100074.25
2023-04-08T00:46:14.179Z,100079.34
2023-04-08T00:48:40.862Z,100070.66
2023-04-08T00:51:08.033Z,100062.97
2023-04-08T00:53:34.576Z,100073.22
2023-04-08T00:56:01.628Z,100081.69
2023-04-08T00:58:29.247Z,100085.13
2023-04-08T01:01:00.735Z,100085.00
2023-04-08T01:03:34.181Z,100090.88
2023-04-08T01:06:07.055Z,100089.00
2023-04-08T01:08:37.662Z,100094.00
2023-04-08T01:11:06.085Z,100095.63
2023-04-08T01:13:37.548Z,100102.38
2023-04-08T01:16:04.475Z,100110.78
2023-04-08T01:18:32.088Z,100114.97
2023-04-08T01:20:59.288Z,100116.59
2023-04-08T01:23:25.896Z,100132.84
2023-04-08T01:25:56.062Z,100121.75
2023-04-08T01:28:23.799Z,100122.59
2023-04-08T01:30:51.540Z,100136.16
2023-04-08T01:33:19.045Z,100129.28
2023-04-08T01:35:46.199Z,100118.13
2023-04-08T01:38:15.558Z,100124.97
2023-04-08T01:40:42.524Z,100125.88
2023-04-08T01:43:09.970Z,100131.09
2023-04-08T01:45:36.682Z,100115.69
2023-04-08T01:48:03.866Z,100121.75
2023-04-08T01:50:31.179Z,100130.28
2023-04-08T01:52:59.248Z,100131.94
2023-04-08T01:55:26.988Z,100134.41
2023-04-08T01:57:54.350Z,100131.75
2023-04-08T02:00:22.908Z,100144.50
2023-04-08T02:02:49.821Z,100143.66
2023-04-08T02:05:16.703Z,100152.09
2023-04-08T02:07:43.337Z,100159.66
2023-04-08T02:10:10.081Z,100162.19
2023-04-08T02:12:36.837Z,100157.84
2023-04-08T02:15:03.765Z,100163.78
2023-04-08T02:17:41.374Z,100161.91
2023-04-08T02:20:10.114Z,100163.56
2023-04-08T02:22:43.702Z,100171.97
2023-04-08T02:25:13.271Z,100182.13
2023-04-08T02:27:40.901Z,100189.78
2023-04-08T02:30:08.714Z,100181.13
2023-04-08T02:32:35.468Z,100192.22
2023-04-08T02:35:03.844Z,100189.56
2023-04-08T02:37:31.239Z,100186.94
2023-04-08T02:39:58.324Z,100194.75
2023-04-08T02:42:24.897Z,100197.47
2023-04-08T02:44:51.654Z,100198.22
2023-04-08T02:47:18.331Z,100199.13
2023-04-08T02:49:44.878Z,100195.81
2023-04-08T02:52:11.454Z,100214.69
2023-04-08T02:54:38.029Z,100213.66
2023-04-08T02:57:04.554Z,100234.78
2023-04-08T02:59:31.097Z,100220.19
2023-04-08T03:01:57.714Z,100222.88
2023-04-08T03:04:24.290Z,100223.06
2023-04-08T03:06:50.974Z,100237.50
2023-04-08T03:09:17.531Z,100236.53
2023-04-08T03:11:44.897Z,100234.72
2023-04-08T03:14:11.649Z,100236.28
2023-04-08T03:16:38.236Z,100235.25
2023-04-08T03:19:04.832Z,100242.25
2023-04-08T03:21:31.897Z,100245.72
2023-04-08T03:23:58.460Z,100255.31
2023-04-08T03:26:27.136Z,100252.75
2023-04-08T03:28:53.700Z,100265.16
2023-04-08T03:31:21.387Z,100269.81
2023-04-08T03:33:48.088Z,100262.97
2023-04-08T03:36:14.627Z,100262.88
2023-04-08T03:38:41.211Z,100263.56
2023-04-08T03:41:07.868Z,100266.97
2023-04-08T03:43:36.796Z,100278.84
2023-04-08T03:46:04.487Z,100283.88
2023-04-08T03:48:31.101Z,100271.88
2023-04-08T03:50:57.781Z,100283.81
2023-04-08T03:53:24.357Z,100287.19
2023-04-08T03:55:51.195Z,100293.97
2023-04-08T03:58:17.826Z,100289.88
2023-04-08T04:00:44.461Z,100299.84
2023-04-08T04:03:13.284Z,100299.94
2023-04-08T04:05:40.412Z,100310.09
2023-04-08T04:08:07.467Z,100306.81
2023-04-08T04:10:34.009Z,100311.16
2023-04-08T04:13:00.576Z,100313.78
2023-04-08T04:15:27.288Z,100323.94
2023-04-08T04:17:53.928Z,100320.38
2023-04-08T04:20:21.861Z,100325.44
2023-04-08T04:22:48.419Z,100331.31
2023-04-08T04:25:15.035Z,100328.91
2023-04-08T04:27:41.610Z,100333.53
2023-04-08T04:30:09.481Z,100338.09
2023-04-08T04:32:36.091Z,100336.63
2023-04-08T04:35:02.813Z,100341.69
2023-04-08T04:37:29.961Z,100346.69
2023-04-08T04:39:56.627Z,100350.00
2023-04-08T04:42:23.257Z,100351.66
2023-04-08T04:44:49.781Z,100355.94
2023-04-08T04:47:16.660Z,100358.56
2023-04-08T04:49:43.292Z,100363.78
2023-04-08T04:52:09.854Z,100361.34
2023-04-08T04:54:36.447Z,100364.84
2023-04-08T04:57:03.216Z,100366.59
2023-04-08T04:59:29.723Z,100376.06
2023-04-08T05:01:57.913Z,100369.28
2023-04-08T05:04:25.082Z,100379.66
2023-04-08T05:06:51.716Z,100380.72
2023-04-08T05:09:18.245Z,100383.53
2023-04-08T05:11:44.780Z,100383.63
2023-04-08T05:14:11.403Z,100387.19
2023-04-08T05:16:38.836Z,100385.63
2023-04-08T05:19:05.456Z,100392.63
2023-04-08T05:21:32.698Z,100400.41
2023-04-08T05:23:59.405Z,100394.53
2023-04-08T05:26:26.386Z,100398.09
2023-04-08T05:28:53.045Z,100399.47
2023-04-08T05:31:20.655Z,100409.34
2023-04-08T05:33:47.779Z,100407.69
2023-04-08T05:36:14.748Z,100412.81
2023-04-08T05:38:43.262Z,100404.22
2023-04-08T05:41:09.900Z,100411.22
2023-04-08T05:43:36.682Z,100414.94
2023-04-08T05:46:10.312Z,100409.94
2023-04-08T05:48:36.976Z,100427.22
2023-04-08T05:51:03.658Z,100419.56
2023-04-08T05:53:30.223Z,100422.22
2023-04-08T05:55:56.791Z,100437.06
2023-04-08T05:58:23.422Z,100432.03
2023-04-08T06:00:49.954Z,100425.13
2023-04-08T06:03:18.935Z,100420.03
2023-04-08T06:05:46.972Z,100431.53
2023-04-08T06:08:13.808Z,100424.88
2023-04-08T06:10:40.425Z,100425.94
2023-04-08T06:13:07.045Z,100428.72
2023-04-08T06:15:33.663Z,100425.44
2023-04-08T06:18:00.312Z,100423.78
2023-04-08T06:20:27.349Z,100420.50
2023-04-08T06:22:53.912Z,100423.19
2023-04-08T06:25:20.443Z,100430.16
2023-04-08T06:27:48.438Z,100434.53
2023-04-08T06:30:15.132Z,100426.94
2023-04-08T06:32:41.698Z,100438.31
2023-04-08T06:35:08.599Z,100442.78
2023-04-08T06:37:38.605Z,100431.84
2023-04-08T06:40:06.565Z,100439.66
2023-04-08T06:42:33.109Z,100437.19
2023-04-08T06:44:59.750Z,100436.53
2023-04-08T06:47:26.361Z,100444.56
2023-04-08T06:49:53.135Z,100445.66
2023-04-08T06:52:19.720Z,100435.50
2023-04-08T06:54:46.577Z,100441.69
2023-04-08T06:57:13.414Z,100446.09
2023-04-08T06:59:40.048Z,100443.66
2023-04-08T07:02:07.065Z,100446.41
2023-04-08T07:04:33.629Z,100440.50
2023-04-08T07:07:00.642Z,100443.97
2023-04-08T07:09:27.269Z,100444.88
2023-04-08T07:11:53.808Z,100438.16
2023-04-08T07:14:20.572Z,100441.78
2023-04-08T07:16:47.179Z,100440.22
2023-04-08T07:19:13.756Z,100441.16
2023-04-08T07:21:40.399Z,100437.91
2023-04-08T07:24:07.287Z,100437.25
2023-04-08T07:26:33.883Z,100438.22
2023-04-08T07:29:00.637Z,100443.53
2023-04-08T07:31:27.323Z,100448.00
2023-04-08T07:33:53.958Z,100442.16
2023-04-08T07:36:21.162Z,100443.91
2023-04-08T07:38:48.031Z,100440.56
2023-04-08T07:41:14.724Z,100442.41
2023-04-08T07:43:41.447Z,100443.34
2023-04-08T07:46:08.071Z,100441.88
2023-04-08T07:48:34.954Z,100444.66
2023-04-08T07:51:09.845Z,100444.84
2023-04-08T07:53:37.546Z,100435.44
2023-04-08T07:56:04.295Z,100431.97
2023-04-08T07:58:32.182Z,100442.38
2023-04-08T08:00:59.566Z,100441.59
2023-04-08T08:03:26.576Z,100448.63
2023-04-08T08:05:53.435Z,100433.19
2023-04-08T08:08:20.033Z,100427.22
2023-04-08T08:10:46.579Z,100433.34
2023-04-08T08:13:17.105Z,100431.69
2023-04-08T08:15:43.721Z,100427.47
2023-04-08T08:18:10.624Z,100428.44
2023-04-08T08:20:37.254Z,100420.81
2023-04-08T08:23:03.796Z,100416.56
2023-04-08T08:25:30.349Z,100414.03
2023-04-08T08:27:56.981Z,100408.00
2023-04-08T08:30:23.605Z,100406.25
2023-04-08T08:32:52.187Z,100407.97
2023-04-08T08:35:18.806Z,100402.81
2023-04-08T08:37:45.425Z,100390.78
2023-04-08T08:40:12.293Z,100389.09
2023-04-08T08:42:39.350Z,100389.19
2023-04-08T08:45:07.082Z,100385.75
2023-04-08T08:47:33.880Z,100382.38
2023-04-08T08:50:00.768Z,100379.78
2023-04-08T08:52:27.302Z,100375.50
2023-04-08T08:54:57.859Z,100364.28
2023-04-08T08:57:24.416Z,100359.88
2023-04-08T08:59:51.331Z,100364.22
2023-04-08T09:02:32.151Z,100359.94
2023-04-08T09:05:03.168Z,100352.97
2023-04-08T09:07:31.199Z,100326.16
2023-04-08T09:09:59.014Z,100319.25
2023-04-08T09:12:28.122Z,100304.50
2023-04-08T09:15:07.656Z,100294.13
2023-04-08T09:17:35.207Z,100306.22
2023-04-08T09:20:09.777Z,100302.78
2023-04-08T09:22:55.497Z,100302.81
2023-04-08T09:25:26.371Z,100293.34
2023-04-08T09:27:53.951Z,100304.69
2023-04-08T09:30:21.854Z,100308.22
2023-04-08T09:32:52.339Z,100300.44
2023-04-08T09:35:22.596Z,100281.44
2023-04-08T09:37:50.459Z,100292.69
2023-04-08T09:40:17.832Z,100266.75
2023-04-08T09:42:45.696Z,100263.28
2023-04-08T09:45:12.865Z,100266.75
2023-04-08T09:47:44.578Z,100265.00
2023-04-08T09:50:11.748Z,100265.88
2023-04-08T09:52:44.222Z,100254.66
2023-04-08T09:55:12.535Z,100249.44
2023-04-08T09:57:57.854Z,100264.19
2023-04-08T10:00:27.724Z,100258.97
2023-04-08T10:03:12.978Z,100254.66
2023-04-08T10:05:41.818Z,100239.91
2023-04-08T10:08:08.590Z,100224.31
2023-04-08T10:10:37.139Z,100222.56
2023-04-08T10:13:04.616Z,100233.81
2023-04-08T10:15:31.995Z,100228.56
2023-04-08T10:18:08.030Z,100214.66
2023-04-08T10:20:34.842Z,100212.91
2023-04-08T10:23:01.995Z,100199.84
2023-04-08T10:25:30.699Z,100202.13
2023-04-08T10:27:57.562Z,100187.22
2023-04-08T10:30:31.752Z,100151.72
2023-04-08T10:33:00.054Z,100137.44
2023-04-08T10:35:34.962Z,100120.41
2023-04-08T10:38:02.105Z,100096.56
2023-04-08T10:40:28.711Z,100074.91
2023-04-08T10:42:58.801Z,100037.22
2023-04-08T10:45:25.379Z,100006.44
2023-04-08T10:47:52.294Z,99991.00
2023-04-08T10:50:20.492Z,99944.06
2023-04-08T10:52:50.922Z,99892.16
2023-04-08T10:55:22.598Z,99879.06
2023-04-08T10:57:50.126Z,99850.59
2023-04-08T11:00:35.766Z,99716.47
2023-04-08T11:03:11.969Z,99646.09
2023-04-08T11:05:39.698Z,99751.00
2023-04-08T11:08:06.439Z,99713.22
2023-04-08T11:10:37.317Z,99649.72
2023-04-08T11:13:06.568Z,99627.31
2023-04-08T11:15:33.525Z,99653.28
2023-04-08T11:18:00.683Z,99696.13
2023-04-08T11:20:27.277Z,99694.28
2023-04-08T11:22:53.871Z,99667.03
2023-04-08T11:25:20.680Z,99643.56
2023-04-08T11:27:47.637Z,99641.78
2023-04-08T11:30:14.365Z,99635.22
2023-04-08T11:32:41.226Z,99621.56
2023-04-08T11:35:07.906Z,99638.97
2023-04-08T11:37:38.326Z,99660.94
2023-04-08T11:40:11.267Z,99623.78
2023-04-08T11:42:38.159Z,99639.47
2023-04-08T11:45:14.813Z,99632.78
2023-04-08T11:47:41.837Z,99614.03
2023-04-08T11:50:09.311Z,99591.88
2023-04-08T11:52:42.073Z,99571.59
2023-04-08T11:55:10.675Z,99568.16
2023-04-08T11:57:37.724Z,99558.28
2023-04-08T12:00:07.553Z,99539.16
2023-04-08T12:02:34.304Z,99534.19
2023-04-08T12:05:01.432Z,99533.56
2023-04-08T12:07:28.185Z,99524.09
2023-04-08T12:09:54.967Z,99485.50
2023-04-08T12:12:21.581Z,99496.66
2023-04-08T12:14:48.150Z,99468.13
2023-04-08T12:17:14.723Z,99466.19
2023-04-08T12:19:41.369Z,99445.41
2023-04-08T12:22:07.897Z,99432.78
2023-04-08T12:24:34.587Z,99421.34
2023-04-08T12:27:02.533Z,99413.66
2023-04-08T12:29:29.464Z,99393.19
2023-04-08T12:31:56.135Z,99377.81
2023-04-08T12:34:22.772Z,99363.13
2023-04-08T12:36:49.915Z,99354.84
2023-04-08T12:39:16.806Z,99334.28
2023-04-08T12:41:43.373Z,99327.13
2023-04-08T12:44:09.962Z,99305.56
2023-04-08T12:46:36.597Z,99320.53
2023-04-08T12:49:05.123Z,99328.47
2023-04-08T12:51:32.381Z,99306.88
2023-04-08T12:54:00.650Z,99287.16
2023-04-08T12:56:27.254Z,99301.75
2023-04-08T12:58:55.429Z,99308.00
2023-04-08T13:01:22.177Z,99289.16
2023-04-08T13:03:49.162Z,99248.66
2023-04-08T13:06:16.170Z,99249.75
2023-04-08T13:08:43.267Z,99298.81
2023-04-08T13:11:09.858Z,99307.81
2023-04-08T13:13:36.695Z,99305.16
2023-04-08T13:16:03.290Z,99309.47
2023-04-08T13:18:29.993Z,99331.31
2023-04-08T13:20:58.110Z,99345.72
2023-04-08T13:23:24.751Z,99348.44
2023-04-08T13:25:51.625Z,99353.41
2023-04-08T13:28:18.283Z,99356.03
2023-04-08T13:30:44.844Z,99356.81
2023-04-08T13:33:11.725Z,99353.78
2023-04-08T13:35:38.320Z,99348.41
2023-04-08T13:38:04.888Z,99342.69
2023-04-08T13:40:31.856Z,99342.53
2023-04-08T13:42:58.656Z,99332.00
2023-04-08T13:45:25.421Z,99330.81
2023-04-08T13:47:58.145Z,99337.84
2023-04-08T13:50:24.832Z,99332.53
2023-04-08T13:52:51.538Z,99255.22
2023-04-08T13:55:18.158Z,99314.47
2023-04-08T13:57:44.848Z,99329.13
2023-04-08T14:00:11.951Z,99335.84
2023-04-08T14:02:38.665Z,99336.38
2023-04-08T14:05:05.544Z,99334.22
2023-04-08T14:07:32.145Z,99340.59
2023-04-08T14:09:58.709Z,99304.44
2023-04-08T14:12:25.260Z,99331.72
2023-04-08T14:14:51.804Z,99338.56
2023-04-08T14:17:18.494Z,99334.47
2023-04-08T14:19:45.060Z,99352.19
2023-04-08T14:22:12.384Z,99352.00
2023-04-08T14:24:38.957Z,99350.97
2023-04-08T14:27:05.588Z,99356.81
2023-04-08T14:29:32.238Z,99342.69
2023-04-08T14:31:59.053Z,99347.97
2023-04-08T14:34:25.882Z,99348.69
2023-04-08T14:36:52.417Z,99345.88
2023-04-08T14:39:18.964Z,99350.75
2023-04-08T14:41:47.705Z,99354.41
2023-04-08T14:44:14.254Z,99368.56
2023-04-08T14:46:40.821Z,99371.97
2023-04-08T14:49:07.467Z,99383.41
2023-04-08T14:51:34.059Z,99387.09
2023-04-08T14:54:02.079Z,99402.88
2023-04-08T14:56:28.664Z,99416.03
2023-04-08T14:58:55.806Z,99420.88
2023-04-08T15:01:22.410Z,99428.06
2023-04-08T15:03:49.077Z,99442.31
2023-04-08T15:06:17.888Z,99440.06
2023-04-08T15:08:45.740Z,99448.22
2023-04-08T15:11:12.349Z,99461.50
2023-04-08T15:13:38.887Z,99454.75
2023-04-08T15:16:06.000Z,99467.97
2023-04-08T15:18:32.593Z,99464.69
2023-04-08T15:20:59.165Z,99475.19
2023-04-08T15:23:25.670Z,99483.25
2023-04-08T15:25:52.239Z,99480.84
2023-04-08T15:28:18.808Z,99489.72
2023-04-08T15:30:45.548Z,99502.16
2023-04-08T15:33:12.178Z,99506.06
2023-04-08T15:35:39.000Z,99507.16
2023-04-08T15:38:05.617Z,99507.44
2023-04-08T15:40:35.983Z,99518.03
2023-04-08T15:43:03.851Z,99519.91
2023-04-08T15:45:30.626Z,99519.13
2023-04-08T15:47:57.301Z,99524.41
2023-04-08T15:50:23.897Z,99539.25
2023-04-08T15:52:50.511Z,99548.03
2023-04-08T15:55:17.065Z,99556.88
2023-04-08T15:57:43.609Z,99558.78
2023-04-08T16:00:11.159Z,99558.00
2023-04-08T16:02:37.934Z,99571.13
2023-04-08T16:05:04.741Z,99572.09
2023-04-08T16:07:31.337Z,99582.63
2023-04-08T16:09:59.093Z,99598.34
2023-04-08T16:12:25.892Z,99596.72
2023-04-08T16:14:52.525Z,99610.69
2023-04-08T16:17:19.172Z,99619.47
2023-04-08T16:19:45.713Z,99616.13
2023-04-08T16:22:12.271Z,99633.56
2023-04-08T16:24:38.801Z,99631.91
2023-04-08T16:27:05.498Z,99644.03
2023-04-08T16:29:32.599Z,99649.31
2023-04-08T16:31:59.176Z,99655.38
2023-04-08T16:34:25.763Z,99654.53
2023-04-08T16:36:52.793Z,99664.13
2023-04-08T16:39:19.397Z,99677.16
2023-04-08T16:41:45.933Z,99688.50
2023-04-08T16:44:12.586Z,99692.00
2023-04-08T16:46:39.219Z,99699.84
2023-04-08T16:49:05.927Z,99706.81
2023-04-08T16:51:32.748Z,99705.94
2023-04-08T16:53:59.984Z,99712.94
2023-04-08T16:56:27.116Z,99726.00
2023-04-08T16:58:53.671Z,99732.09
2023-04-08T17:01:20.799Z,99743.41
2023-04-08T17:03:48.752Z,99753.88
2023-04-08T17:06:15.534Z,99757.34
2023-04-08T17:08:45.138Z,99764.34
2023-04-08T17:11:13.164Z,99773.06
2023-04-08T17:13:41.296Z,99774.81
2023-04-08T17:16:11.608Z,99781.78
2023-04-08T17:18:38.173Z,99791.38
2023-04-08T17:21:04.898Z,99798.28
2023-04-08T17:23:31.617Z,99794.00
2023-04-08T17:25:58.127Z,99800.09
2023-04-08T17:28:24.745Z,99801.84
2023-04-08T17:30:51.480Z,99814.00
2023-04-08T17:33:18.095Z,99820.09
2023-04-08T17:35:44.672Z,99825.28
2023-04-08T17:38:11.226Z,99830.50
2023-04-08T17:40:38.613Z,99834.84
2023-04-08T17:43:05.169Z,99834.00
2023-04-08T17:45:31.818Z,99853.06
2023-04-08T17:47:58.802Z,99858.25
2023-04-08T17:50:25.609Z,99854.81
2023-04-08T17:52:52.238Z,99865.22
2023-04-08T17:55:18.820Z,99868.69
2023-04-08T17:57:45.461Z,99872.16
2023-04-08T18:00:12.203Z,99885.13
2023-04-08T18:02:39.007Z,99903.34
2023-04-08T18:05:06.571Z,99889.50
2023-04-08T18:07:33.394Z,99892.16
2023-04-08T18:09:59.970Z,99924.13
2023-04-08T18:12:28.255Z,99913.78
2023-04-08T18:14:54.856Z,99915.53
2023-04-08T18:17:21.488Z,99915.53
2023-04-08T18:19:48.116Z,99919.00
2023-04-08T18:22:14.731Z,99938.91
2023-04-08T18:24:41.320Z,99950.13
2023-04-08T18:27:08.553Z,99940.63
2023-04-08T18:29:35.160Z,99951.84
2023-04-08T18:32:01.747Z,99988.16
2023-04-08T18:34:28.609Z,99977.78
2023-04-08T18:36:55.161Z,99986.44
2023-04-08T18:39:21.944Z,100024.47
2023-04-08T18:41:48.525Z,100026.19
2023-04-08T18:44:15.659Z,99994.22
2023-04-08T18:46:42.299Z,100011.47
2023-04-08T18:49:08.902Z,100037.41
2023-04-08T18:51:35.454Z,100019.25
2023-04-08T18:54:01.992Z,100036.53
2023-04-08T18:56:28.686Z,100041.69
2023-04-08T18:58:55.322Z,100057.25
2023-04-08T19:01:22.161Z,100054.66
2023-04-08T19:03:48.918Z,100055.53
2023-04-08T19:06:17.375Z,100052.91
2023-04-08T19:08:44.261Z,100064.13
2023-04-08T19:11:11.673Z,100081.41
2023-04-08T19:13:38.205Z,100075.38
2023-04-08T19:16:05.119Z,100084.00
2023-04-08T19:18:31.759Z,100098.66
2023-04-08T19:20:58.376Z,100088.31
2023-04-08T19:23:24.923Z,100088.31
2023-04-08T19:25:51.492Z,100099.56
2023-04-08T19:28:18.040Z,100096.94
2023-04-08T19:30:44.633Z,100102.13
2023-04-08T19:33:11.250Z,100115.06
2023-04-08T19:35:38.119Z,100115.94
2023-04-08T19:38:05.700Z,100130.63
2023-04-08T19:40:32.276Z,100147.88
2023-04-08T19:42:58.849Z,100133.19
2023-04-08T19:45:25.452Z,100141.81
2023-04-08T19:47:52.085Z,100153.03
2023-04-08T19:50:21.197Z,100159.94
2023-04-08T19:52:47.770Z,100159.03
2023-04-08T19:55:14.991Z,100160.75
2023-04-08T19:57:41.642Z,100179.75
2023-04-08T20:00:08.505Z,100194.41
2023-04-08T20:02:35.328Z,100187.50
2023-04-08T20:05:02.381Z,100190.91
2023-04-08T20:07:30.054Z,100205.56
2023-04-08T20:09:56.652Z,100202.97
2023-04-08T20:12:23.252Z,100196.88
2023-04-08T20:14:49.778Z,100217.59
2023-04-08T20:17:17.965Z,100231.41
2023-04-08T20:19:44.654Z,100240.00
2023-04-08T20:22:11.240Z,100226.19
2023-04-08T20:24:37.811Z,100234.81
2023-04-08T20:27:04.469Z,100238.25
2023-04-08T20:29:31.026Z,100260.69
2023-04-08T20:31:57.847Z,100252.03
2023-04-08T20:34:24.452Z,100271.03
2023-04-08T20:36:51.048Z,100268.41
2023-04-08T20:39:17.988Z,100287.34
2023-04-08T20:41:44.618Z,100343.38
2023-04-08T20:44:11.175Z,100314.03
2023-04-08T20:46:37.904Z,100306.28
2023-04-08T20:49:05.042Z,100326.03
2023-04-08T20:51:33.818Z,100312.22
2023-04-08T20:54:00.586Z,100322.56
2023-04-08T20:56:27.334Z,100335.44
2023-04-08T20:58:54.249Z,100327.66
2023-04-08T21:01:21.669Z,100343.19
2023-04-08T21:03:49.057Z,100397.38
2023-04-08T21:06:17.004Z,100381.88
2023-04-08T21:08:43.663Z,100371.50
2023-04-08T21:11:10.243Z,100377.50
2023-04-08T21:13:37.165Z,100374.84
2023-04-08T21:16:03.965Z,100373.94
2023-04-08T21:18:30.503Z,100387.75
2023-04-08T21:20:57.323Z,100423.00
2023-04-08T21:23:23.836Z,100444.47
2023-04-08T21:25:50.465Z,100447.88
2023-04-08T21:28:17.500Z,100441.84
2023-04-08T21:30:44.114Z,100447.81
2023-04-08T21:33:10.806Z,100445.19
2023-04-08T21:35:37.487Z,100453.81
2023-04-08T21:38:04.139Z,100476.16
2023-04-08T21:40:30.681Z,100445.13
2023-04-08T21:42:57.246Z,100445.91
2023-04-08T21:45:24.790Z,100463.13
2023-04-08T21:47:51.372Z,100455.34
2023-04-08T21:50:17.957Z,100466.53
2023-04-08T21:52:44.553Z,100457.00
2023-04-08T21:55:11.150Z,100471.63
2023-04-08T21:57:39.350Z,100481.91
2023-04-08T22:00:13.158Z,100497.41
2023-04-08T22:02:42.646Z,100514.53
2023-04-08T22:05:09.613Z,100501.59
2023-04-08T22:07:36.347Z,100506.72
2023-04-08T22:10:03.093Z,100510.09
2023-04-08T22:12:30.735Z,100504.06
2023-04-08T22:14:57.408Z,100507.41
2023-04-08T22:17:24.102Z,100506.50
2023-04-08T22:19:50.846Z,100521.13
2023-04-08T22:22:17.426Z,100523.66
2023-04-08T22:24:44.168Z,100527.09
2023-04-08T22:27:10.970Z,100530.44
2023-04-08T22:29:37.539Z,100524.38
2023-04-08T22:32:04.198Z,100533.00
2023-04-08T22:34:30.824Z,100536.41
2023-04-08T22:36:57.372Z,100551.88
2023-04-08T22:39:26.154Z,100549.25
2023-04-08T22:41:52.726Z,100558.66
2023-04-08T22:44:19.274Z,100561.19
2023-04-08T22:46:46.031Z,100557.72
2023-04-08T22:49:12.641Z,100562.84
2023-04-08T22:51:39.170Z,100565.38
2023-04-08T22:54:05.736Z,100566.16
2023-04-08T22:56:32.340Z,100573.06
2023-04-08T22:58:58.904Z,100573.00
2023-04-08T23:01:25.517Z,100581.53
2023-04-08T23:03:52.188Z,100591.72
2023-04-08T23:06:18.943Z,100587.28
2023-04-08T23:08:45.538Z,100593.19
2023-04-08T23:11:12.090Z,100600.91
2023-04-08T23:13:38.619Z,100609.44
2023-04-08T23:16:05.632Z,100611.91
2023-04-08T23:18:32.155Z,100637.66
2023-04-08T23:20:58.728Z,100633.38
2023-04-08T23:23:25.535Z,100633.31
2023-04-08T23:25:54.956Z,100638.38
2023-04-08T23:28:22.161Z,100637.53
2023-04-08T23:30:48.765Z,100640.91
2023-04-08T23:33:15.370Z,100645.22
2023-04-08T23:35:42.232Z,100648.66
2023-04-08T23:38:08.884Z,100649.41
2023-04-08T23:40:35.499Z,100658.81
2023-04-08T23:43:02.022Z,100669.16
2023-04-08T23:45:28.605Z,100664.00
2023-04-08T23:47:55.251Z,100681.16
2023-04-08T23:50:23.078Z,100681.16
2023-04-08T23:52:51.281Z,100677.66
2023-04-08T23:55:17.855Z,100679.38
2023-04-08T23:57:44.438Z,100677.59
